createdAt,value
2022-10-01T00:01:19.989Z,8.60
2022-10-01T00:03:49.113Z,7.97
2022-10-01T00:06:19.396Z,8.25
2022-10-01T00:08:49.384Z,8.25
2022-10-01T00:11:19.070Z,8.90
2022-10-01T00:13:46.949Z,7.47
2022-10-01T00:16:18.145Z,9.82
2022-10-01T00:18:48.010Z,9.57
2022-10-01T00:21:19.640Z,7.63
2022-10-01T00:23:48.415Z,9.90
2022-10-01T00:26:18.350Z,8.57
2022-10-01T00:28:48.685Z,8.23
2022-10-01T00:31:17.780Z,7.47
2022-10-01T00:33:45.766Z,8.25
2022-10-01T00:36:13.485Z,8.30
2022-10-01T00:38:42.210Z,8.23
2022-10-01T00:41:10.640Z,8.23
2022-10-01T00:43:43.575Z,10.45
2022-10-01T00:46:20.657Z,7.78
2022-10-01T00:48:56.557Z,8.27
2022-10-01T00:51:24.959Z,6.60
2022-10-01T00:53:53.300Z,8.27
2022-10-01T00:56:21.095Z,7.93
2022-10-01T00:58:54.106Z,8.75
2022-10-01T01:01:24.648Z,8.02
2022-10-01T01:03:52.411Z,7.37
2022-10-01T01:06:20.243Z,7.47
2022-10-01T01:08:55.104Z,7.10
2022-10-01T01:11:33.405Z,6.75
2022-10-01T01:14:06.859Z,7.43
2022-10-01T01:16:40.189Z,5.67
2022-10-01T01:19:23.370Z,6.43
2022-10-01T01:21:56.462Z,5.80
2022-10-01T01:24:49.442Z,7.22
2022-10-01T01:27:25.798Z,6.45
2022-10-01T01:30:01.245Z,5.47
2022-10-01T01:32:33.640Z,5.78
2022-10-01T01:35:04.668Z,5.40
2022-10-01T01:37:36.595Z,5.45
2022-10-01T01:40:11.027Z,4.25
2022-10-01T01:42:41.906Z,4.80
2022-10-01T01:45:16.546Z,4.55
2022-10-01T01:47:46.608Z,4.22
2022-10-01T01:50:17.153Z,5.82
2022-10-01T01:52:45.904Z,5.25
2022-10-01T01:55:13.701Z,4.63
2022-10-01T01:57:44.376Z,4.25
2022-10-01T02:00:14.739Z,4.90
2022-10-01T02:02:49.048Z,4.95
2022-10-01T02:05:21.844Z,5.30
2022-10-01T02:08:20.913Z,5.20
2022-10-01T02:11:21.489Z,4.97
2022-10-01T02:14:01.155Z,8.20
2022-10-01T02:16:34.470Z,4.85
2022-10-01T02:19:08.211Z,4.93
2022-10-01T02:21:40.613Z,5.03
2022-10-01T02:24:14.348Z,4.75
2022-10-01T02:26:44.195Z,5.63
2022-10-01T02:29:14.809Z,6.00
2022-10-01T02:31:45.122Z,6.65
2022-10-01T02:34:19.402Z,5.60
2022-10-01T02:36:49.672Z,7.25
2022-10-01T02:39:19.264Z,8.02
2022-10-01T02:41:51.249Z,5.95
2022-10-01T02:44:22.891Z,6.45
2022-10-01T02:46:58.642Z,6.07
2022-10-01T02:49:30.690Z,6.05
2022-10-01T02:52:02.512Z,7.40
2022-10-01T02:54:34.328Z,6.28
2022-10-01T02:57:19.355Z,6.70
2022-10-01T02:59:47.089Z,7.93
2022-10-01T03:02:16.593Z,6.72
2022-10-01T03:04:44.394Z,6.78
2022-10-01T03:07:12.117Z,8.30
2022-10-01T03:09:39.892Z,8.45
2022-10-01T03:12:07.769Z,9.20
2022-10-01T03:14:35.496Z,9.35
2022-10-01T03:17:03.137Z,7.05
2022-10-01T03:19:32.157Z,10.00
2022-10-01T03:22:00.079Z,11.18
2022-10-01T03:24:27.765Z,11.57
2022-10-01T03:26:56.737Z,10.88
2022-10-01T03:29:24.676Z,11.55
2022-10-01T03:31:52.775Z,9.85
2022-10-01T03:34:21.183Z,10.73
2022-10-01T03:36:51.849Z,18.50
2022-10-01T03:39:19.911Z,10.27
2022-10-01T03:41:47.634Z,17.23
2022-10-01T03:44:15.418Z,10.30
2022-10-01T03:46:43.726Z,11.98
2022-10-01T03:49:11.563Z,10.67
2022-10-01T03:51:39.420Z,19.25
2022-10-01T03:54:09.522Z,8.65
2022-10-01T03:56:37.811Z,10.15
2022-10-01T03:59:05.487Z,9.73
2022-10-01T04:01:33.691Z,9.93
2022-10-01T04:04:02.073Z,13.70
2022-10-01T04:06:29.825Z,15.65
2022-10-01T04:08:57.737Z,8.60
2022-10-01T04:11:26.887Z,9.60
2022-10-01T04:13:54.603Z,9.57
2022-10-01T04:16:22.439Z,9.60
2022-10-01T04:18:50.193Z,10.45
2022-10-01T04:21:17.988Z,8.35
2022-10-01T04:23:45.639Z,12.35
2022-10-01T04:26:13.348Z,11.00
2022-10-01T04:28:45.080Z,13.68
2022-10-01T04:31:28.113Z,13.68
2022-10-01T04:33:57.946Z,10.48
2022-10-01T04:36:26.581Z,10.43
2022-10-01T04:38:58.190Z,9.43
2022-10-01T04:41:30.430Z,10.38
2022-10-01T04:44:00.565Z,16.55
2022-10-01T04:46:29.302Z,12.75
2022-10-01T04:48:57.031Z,9.13
2022-10-01T04:51:24.724Z,14.23
2022-10-01T04:53:52.369Z,14.10
2022-10-01T04:56:19.996Z,10.18
2022-10-01T04:58:48.508Z,16.75
2022-10-01T05:01:17.542Z,13.50
2022-10-01T05:03:45.390Z,14.13
2022-10-01T05:06:13.103Z,12.23
2022-10-01T05:08:40.798Z,13.45
2022-10-01T05:11:08.668Z,17.23
2022-10-01T05:13:36.422Z,16.85
2022-10-01T05:16:04.129Z,13.63
2022-10-01T05:18:33.115Z,13.73
2022-10-01T05:21:05.188Z,11.45
2022-10-01T05:23:33.218Z,15.30
2022-10-01T05:26:00.980Z,16.00
2022-10-01T05:28:28.648Z,12.43
2022-10-01T05:30:58.661Z,10.98
2022-10-01T05:33:26.710Z,10.23
2022-10-01T05:35:57.018Z,12.55
2022-10-01T05:38:24.858Z,9.98
2022-10-01T05:40:52.560Z,12.00
2022-10-01T05:43:20.248Z,14.43
2022-10-01T05:45:48.105Z,10.57
2022-10-01T05:48:15.753Z,8.95
2022-10-01T05:50:44.210Z,8.00
2022-10-01T05:53:13.995Z,11.93
2022-10-01T05:55:41.693Z,17.70
2022-10-01T05:58:11.039Z,16.80
2022-10-01T06:00:39.832Z,15.35
2022-10-01T06:03:08.178Z,12.38
2022-10-01T06:05:37.872Z,13.80
2022-10-01T06:08:06.711Z,13.07
2022-10-01T06:10:36.826Z,16.35
2022-10-01T06:13:06.351Z,11.93
2022-10-01T06:15:37.349Z,15.00
2022-10-01T06:18:05.229Z,13.07
2022-10-01T06:20:32.925Z,12.50
2022-10-01T06:23:01.043Z,11.80
2022-10-01T06:25:30.740Z,15.55
2022-10-01T06:28:00.858Z,12.70
2022-10-01T06:30:31.670Z,10.00
2022-10-01T06:33:02.673Z,14.68
2022-10-01T06:35:30.412Z,13.88
2022-10-01T06:37:58.154Z,9.57
2022-10-01T06:40:25.930Z,6.57
2022-10-01T06:42:56.718Z,4.57
2022-10-01T06:45:26.662Z,3.72
2022-10-01T06:47:55.630Z,4.18
2022-10-01T06:50:23.872Z,8.60
2022-10-01T06:52:50.733Z,9.13
2022-10-01T06:55:18.874Z,7.97
2022-10-01T06:57:47.312Z,5.95
2022-10-01T07:00:15.813Z,11.30
2022-10-01T07:02:44.989Z,10.90
2022-10-01T07:05:12.919Z,6.93
2022-10-01T07:07:40.771Z,8.73
2022-10-01T07:10:11.216Z,11.43
2022-10-01T07:12:39.559Z,10.88
2022-10-01T07:15:09.188Z,13.68
2022-10-01T07:17:45.928Z,14.07
2022-10-01T07:20:14.723Z,19.37
2022-10-01T07:22:42.797Z,15.77
2022-10-01T07:25:10.847Z,11.88
2022-10-01T07:27:39.035Z,15.48
2022-10-01T07:30:08.690Z,17.77
2022-10-01T07:32:36.384Z,18.17
2022-10-01T07:35:06.802Z,15.15
2022-10-01T07:37:34.524Z,12.85
2022-10-01T07:40:07.154Z,13.45
2022-10-01T07:42:35.308Z,13.23
2022-10-01T07:45:04.242Z,15.40
2022-10-01T07:47:32.220Z,12.88
2022-10-01T07:49:59.917Z,13.73
2022-10-01T07:52:30.236Z,9.70
2022-10-01T07:54:58.077Z,16.67
2022-10-01T07:57:25.710Z,20.37
2022-10-01T07:59:55.901Z,10.50
2022-10-01T08:02:24.050Z,14.50
2022-10-01T08:05:09.179Z,14.90
2022-10-01T08:07:38.256Z,15.32
2022-10-01T08:10:06.755Z,14.23
2022-10-01T08:12:34.459Z,11.57
2022-10-01T08:15:03.088Z,10.57
2022-10-01T08:17:30.896Z,13.88
2022-10-01T08:19:58.574Z,12.00
2022-10-01T08:22:26.318Z,12.97
2022-10-01T08:24:55.429Z,10.38
2022-10-01T08:27:24.877Z,8.63
2022-10-01T08:29:52.824Z,9.73
2022-10-01T08:32:21.741Z,11.85
2022-10-01T08:34:53.315Z,16.97
2022-10-01T08:37:28.096Z,10.77
2022-10-01T08:39:57.656Z,10.23
2022-10-01T08:42:52.082Z,11.25
2022-10-01T08:45:26.555Z,10.43
2022-10-01T08:48:02.912Z,8.77
2022-10-01T08:50:39.787Z,14.63
2022-10-01T08:53:16.244Z,18.38
2022-10-01T08:55:47.001Z,11.93
2022-10-01T08:58:22.798Z,10.35
2022-10-01T09:00:52.654Z,10.17
2022-10-01T09:03:20.943Z,9.70
2022-10-01T09:06:19.369Z,14.27
2022-10-01T09:09:14.302Z,10.73
2022-10-01T09:12:03.175Z,13.05
2022-10-01T09:14:44.971Z,17.03
2022-10-01T09:17:21.876Z,16.80
2022-10-01T09:20:12.346Z,14.55
2022-10-01T09:22:42.258Z,15.25
2022-10-01T09:25:17.946Z,12.18
2022-10-01T09:27:48.079Z,10.63
2022-10-01T09:30:19.444Z,12.45
2022-10-01T09:32:53.190Z,9.65
2022-10-01T09:35:30.854Z,14.82
2022-10-01T09:38:03.376Z,9.63
2022-10-01T09:40:35.830Z,15.50
2022-10-01T09:43:08.064Z,12.70
2022-10-01T09:45:36.443Z,12.60
2022-10-01T09:48:15.026Z,14.90
2022-10-01T09:50:50.388Z,13.85
2022-10-01T09:53:22.943Z,15.60
2022-10-01T09:55:55.173Z,11.23
2022-10-01T09:58:26.025Z,12.13
2022-10-01T10:00:55.893Z,11.43
2022-10-01T10:03:27.495Z,13.75
2022-10-01T10:05:55.681Z,14.37
2022-10-01T10:08:29.782Z,6.07
2022-10-01T10:11:00.545Z,12.63
2022-10-01T10:13:35.029Z,10.15
2022-10-01T10:16:10.958Z,15.65
2022-10-01T10:18:40.836Z,17.07
2022-10-01T10:21:16.271Z,12.55
2022-10-01T10:23:50.274Z,12.15
2022-10-01T10:26:23.479Z,16.50
2022-10-01T10:28:52.664Z,13.23
2022-10-01T10:31:23.976Z,12.03
2022-10-01T10:33:55.514Z,12.52
2022-10-01T10:36:28.878Z,13.98
2022-10-01T10:38:57.601Z,15.57
2022-10-01T10:41:27.157Z,13.05
2022-10-01T10:44:00.507Z,11.90
2022-10-01T10:46:32.963Z,11.65
2022-10-01T10:49:06.919Z,9.65
2022-10-01T10:51:46.158Z,10.85
2022-10-01T10:54:23.180Z,11.90
2022-10-01T10:57:02.233Z,10.40
2022-10-01T10:59:33.752Z,13.85
2022-10-01T11:02:04.271Z,13.27
2022-10-01T11:04:42.701Z,20.33
2022-10-01T11:07:13.302Z,13.38
2022-10-01T11:10:00.467Z,16.57
2022-10-01T11:12:44.040Z,10.43
2022-10-01T11:15:33.848Z,12.23
2022-10-01T11:18:24.714Z,12.43
2022-10-01T11:21:00.747Z,11.18
2022-10-01T11:23:46.087Z,14.53
2022-10-01T11:26:23.008Z,12.07
2022-10-01T11:29:04.125Z,11.73
2022-10-01T11:31:39.222Z,15.57
2022-10-01T11:34:29.770Z,14.68
2022-10-01T11:37:04.075Z,13.43
2022-10-01T11:39:35.219Z,8.93
2022-10-01T11:42:08.893Z,8.98
2022-10-01T11:44:42.307Z,9.75
2022-10-01T11:47:16.406Z,18.98
2022-10-01T11:49:57.898Z,11.10
2022-10-01T11:52:34.768Z,13.80
2022-10-01T11:55:30.764Z,8.43
2022-10-01T11:58:21.501Z,19.58
2022-10-01T12:01:00.170Z,12.88
2022-10-01T12:03:38.577Z,13.47
2022-10-01T12:06:09.296Z,13.45
2022-10-01T12:08:38.750Z,11.68
2022-10-01T12:11:16.251Z,10.80
2022-10-01T12:13:55.193Z,12.63
2022-10-01T12:16:32.102Z,11.23
2022-10-01T12:19:04.492Z,17.75
2022-10-01T12:21:38.200Z,10.52
2022-10-01T12:24:11.857Z,12.57
2022-10-01T12:26:50.508Z,11.00
2022-10-01T12:29:24.863Z,15.00
2022-10-01T12:31:58.663Z,11.63
2022-10-01T12:34:39.429Z,13.63
2022-10-01T12:37:19.291Z,15.75
2022-10-01T12:40:02.391Z,13.25
2022-10-01T12:42:53.853Z,10.53
2022-10-01T12:45:29.174Z,14.32
2022-10-01T12:48:06.545Z,11.85
2022-10-01T12:50:50.054Z,10.07
2022-10-01T12:53:26.735Z,13.15
2022-10-01T12:56:10.709Z,14.53
2022-10-01T12:59:06.412Z,11.45
2022-10-01T13:01:45.285Z,11.85
2022-10-01T13:04:38.356Z,9.43
2022-10-01T13:07:25.766Z,8.75
2022-10-01T13:10:04.749Z,12.13
2022-10-01T13:12:49.679Z,13.98
2022-10-01T13:15:22.333Z,12.75
2022-10-01T13:17:53.483Z,9.63
2022-10-01T13:20:29.011Z,12.65
2022-10-01T13:23:05.225Z,9.40
2022-10-01T13:25:39.663Z,13.20
2022-10-01T13:28:16.073Z,13.00
2022-10-01T13:30:55.101Z,13.60
2022-10-01T13:33:26.097Z,16.70
2022-10-01T13:35:56.631Z,11.77
2022-10-01T13:38:32.012Z,7.97
2022-10-01T13:41:01.797Z,12.05
2022-10-01T13:43:31.681Z,9.30
2022-10-01T13:46:08.797Z,12.60
2022-10-01T13:48:38.431Z,9.77
2022-10-01T13:51:10.643Z,13.50
2022-10-01T13:53:50.007Z,17.63
2022-10-01T13:56:35.188Z,11.00
2022-10-01T13:59:03.648Z,18.95
2022-10-01T14:01:39.922Z,17.17
2022-10-01T14:04:21.034Z,10.85
2022-10-01T14:06:53.321Z,10.77
2022-10-01T14:09:25.462Z,15.38
2022-10-01T14:12:13.580Z,12.90
2022-10-01T14:15:02.325Z,13.33
2022-10-01T14:17:32.970Z,12.07
2022-10-01T14:20:01.970Z,16.35
2022-10-01T14:22:51.708Z,11.95
2022-10-01T14:25:31.799Z,11.52
2022-10-01T14:28:21.558Z,14.80
2022-10-01T14:30:55.524Z,14.75
2022-10-01T14:33:46.147Z,12.75
2022-10-01T14:36:17.263Z,11.20
2022-10-01T14:38:44.972Z,9.52
2022-10-01T14:41:19.979Z,9.83
2022-10-01T14:43:48.115Z,13.10
2022-10-01T14:46:17.996Z,10.40
2022-10-01T14:48:46.096Z,10.70
2022-10-01T14:51:29.214Z,11.90
2022-10-01T14:54:00.340Z,12.27
2022-10-01T14:56:30.134Z,9.75
2022-10-01T14:59:02.742Z,13.95
2022-10-01T15:01:30.745Z,12.02
2022-10-01T15:03:58.501Z,10.20
2022-10-01T15:06:29.995Z,12.00
2022-10-01T15:09:12.365Z,11.30
2022-10-01T15:11:44.650Z,14.30
2022-10-01T15:14:18.713Z,10.95
2022-10-01T15:16:47.016Z,16.20
2022-10-01T15:19:18.003Z,10.07
2022-10-01T15:21:50.907Z,8.07
2022-10-01T15:24:25.939Z,12.60
2022-10-01T15:26:56.740Z,10.23
2022-10-01T15:29:29.996Z,11.30
2022-10-01T15:32:02.949Z,7.13
2022-10-01T15:34:31.489Z,12.68
2022-10-01T15:37:01.008Z,10.27
2022-10-01T15:39:34.214Z,12.10
2022-10-01T15:42:08.804Z,8.63
2022-10-01T15:44:45.903Z,13.70
2022-10-01T15:47:27.995Z,10.18
2022-10-01T15:50:07.795Z,9.35
2022-10-01T15:52:53.112Z,15.10
2022-10-01T15:55:25.267Z,9.23
2022-10-01T15:57:57.812Z,11.17
2022-10-01T16:00:27.914Z,11.25
2022-10-01T16:02:57.383Z,14.18
2022-10-01T16:05:27.814Z,9.40
2022-10-01T16:07:58.215Z,9.25
2022-10-01T16:10:35.144Z,7.10
2022-10-01T16:13:39.318Z,9.73
2022-10-01T16:16:23.286Z,11.23
2022-10-01T16:18:56.069Z,10.60
2022-10-01T16:21:24.430Z,10.98
2022-10-01T16:23:53.970Z,14.23
2022-10-01T16:26:39.645Z,9.88
2022-10-01T16:29:21.153Z,8.18
2022-10-01T16:31:48.969Z,8.38
2022-10-01T16:34:18.793Z,8.93
2022-10-01T16:36:47.101Z,9.17
2022-10-01T16:39:15.291Z,7.70
2022-10-01T16:41:45.086Z,6.35
2022-10-01T16:44:15.139Z,12.98
2022-10-01T16:46:43.336Z,9.60
2022-10-01T16:49:14.830Z,9.23
2022-10-01T16:51:43.295Z,9.93
2022-10-01T16:54:21.870Z,10.95
2022-10-01T16:56:50.617Z,9.73
2022-10-01T16:59:22.278Z,10.10
2022-10-01T17:01:51.242Z,13.10
2022-10-01T17:04:19.310Z,6.50
2022-10-01T17:06:47.539Z,11.23
2022-10-01T17:09:15.270Z,10.63
2022-10-01T17:11:43.899Z,7.65
2022-10-01T17:14:16.885Z,10.47
2022-10-01T17:16:46.539Z,10.93
2022-10-01T17:19:14.706Z,10.07
2022-10-01T17:21:42.823Z,10.13
2022-10-01T17:24:11.371Z,11.18
2022-10-01T17:26:40.646Z,11.27
2022-10-01T17:29:08.979Z,12.15
2022-10-01T17:31:37.665Z,10.38
2022-10-01T17:34:06.748Z,7.35
2022-10-01T17:36:36.312Z,15.98
2022-10-01T17:39:04.954Z,11.20
2022-10-01T17:41:32.667Z,9.40
2022-10-01T17:44:00.673Z,9.93
2022-10-01T17:46:29.695Z,8.90
2022-10-01T17:48:57.632Z,13.13
2022-10-01T17:51:26.709Z,12.97
2022-10-01T17:53:57.833Z,12.30
2022-10-01T17:56:25.843Z,11.60
2022-10-01T17:58:54.296Z,14.13
2022-10-01T18:01:22.954Z,14.07
2022-10-01T18:03:54.720Z,8.83
2022-10-01T18:06:22.501Z,11.70
2022-10-01T18:08:55.647Z,12.10
2022-10-01T18:11:25.116Z,10.88
2022-10-01T18:13:52.977Z,10.95
2022-10-01T18:16:20.778Z,11.73
2022-10-01T18:19:51.356Z,17.35
2022-10-01T18:21:38.090Z,31.95
2022-10-01T18:24:07.615Z,30.35
2022-10-01T18:26:36.080Z,42.20
2022-10-01T18:29:04.148Z,38.77
2022-10-01T18:31:35.885Z,43.80
2022-10-01T18:34:12.236Z,25.95
2022-10-01T18:36:48.028Z,30.45
2022-10-01T18:39:22.222Z,23.20
2022-10-01T18:41:51.126Z,21.53
2022-10-01T18:44:20.783Z,22.40
2022-10-01T18:47:04.516Z,21.42
2022-10-01T18:50:03.104Z,12.95
2022-10-01T18:52:40.344Z,14.57
2022-10-01T18:55:30.289Z,13.20
2022-10-01T18:58:14.993Z,28.08
2022-10-01T19:00:48.565Z,13.98
2022-10-01T19:03:44.456Z,12.48
2022-10-01T19:06:32.586Z,12.25
2022-10-01T19:09:18.941Z,8.97
2022-10-01T19:11:58.691Z,9.07
2022-10-01T19:14:42.160Z,11.23
2022-10-01T19:17:23.784Z,8.60
2022-10-01T19:20:04.461Z,10.50
2022-10-01T19:22:43.562Z,11.00
2022-10-01T19:25:20.531Z,12.57
2022-10-01T19:28:01.029Z,10.63
2022-10-01T19:30:32.991Z,9.25
2022-10-01T19:33:04.399Z,10.32
2022-10-01T19:35:34.617Z,10.77
2022-10-01T19:38:05.581Z,9.32
2022-10-01T19:40:40.337Z,9.82
2022-10-01T19:43:14.722Z,8.85
2022-10-01T19:45:49.369Z,8.07
2022-10-01T19:48:22.421Z,13.90
2022-10-01T19:50:55.876Z,8.52
2022-10-01T19:53:27.987Z,10.77
2022-10-01T19:55:58.703Z,13.43
2022-10-01T19:58:30.517Z,10.02
2022-10-01T20:01:01.031Z,11.03
2022-10-01T20:03:37.143Z,6.72
2022-10-01T20:06:09.269Z,13.23
2022-10-01T20:08:42.897Z,9.23
2022-10-01T20:11:19.763Z,12.18
2022-10-01T20:14:37.128Z,10.07
2022-10-01T20:17:13.823Z,9.02
2022-10-01T20:19:46.992Z,9.07
2022-10-01T20:22:22.535Z,9.57
2022-10-01T20:24:59.517Z,10.30
2022-10-01T20:27:38.014Z,11.53
2022-10-01T20:30:09.477Z,9.02
2022-10-01T20:32:46.129Z,7.50
2022-10-01T20:35:26.238Z,7.15
2022-10-01T20:38:12.270Z,9.80
2022-10-01T20:40:49.326Z,9.13
2022-10-01T20:43:20.748Z,11.00
2022-10-01T20:45:52.709Z,12.00
2022-10-01T20:48:23.692Z,7.75
2022-10-01T20:50:53.881Z,12.18
2022-10-01T20:53:30.267Z,11.57
2022-10-01T20:56:04.200Z,11.07
2022-10-01T20:58:36.332Z,11.73
2022-10-01T21:01:12.634Z,11.30
2022-10-01T21:03:44.459Z,9.02
2022-10-01T21:06:17.195Z,8.60
2022-10-01T21:08:50.044Z,11.82
2022-10-01T21:11:26.615Z,11.77
2022-10-01T21:13:59.677Z,9.52
2022-10-01T21:17:06.099Z,6.28
2022-10-01T21:19:47.790Z,9.47
2022-10-01T21:22:29.180Z,8.35
2022-10-01T21:25:01.162Z,9.95
2022-10-01T21:27:49.130Z,9.98
2022-10-01T21:30:18.815Z,10.60
2022-10-01T21:33:14.377Z,7.93
2022-10-01T21:35:52.287Z,9.88
2022-10-01T21:38:31.000Z,8.85
2022-10-01T21:41:11.619Z,9.02
2022-10-01T21:43:56.545Z,10.07
2022-10-01T21:46:33.196Z,10.60
2022-10-01T21:49:09.728Z,6.60
2022-10-01T21:51:52.094Z,8.07
2022-10-01T21:54:39.840Z,6.90
2022-10-01T21:57:20.025Z,11.02
2022-10-01T22:00:05.675Z,8.00
2022-10-01T22:02:43.662Z,9.57
2022-10-01T22:05:24.506Z,8.82
2022-10-01T22:08:00.233Z,7.55
2022-10-01T22:10:33.472Z,9.90
2022-10-01T22:13:05.230Z,7.60
2022-10-01T22:15:39.476Z,9.05
2022-10-01T22:18:12.257Z,10.02
2022-10-01T22:20:43.620Z,11.63
2022-10-01T22:23:15.603Z,8.30
2022-10-01T22:25:51.666Z,11.10
2022-10-01T22:28:24.503Z,12.60
2022-10-01T22:30:54.912Z,10.65
2022-10-01T22:33:29.714Z,9.15
2022-10-01T22:36:06.908Z,9.52
2022-10-01T22:38:39.523Z,9.37
2022-10-01T22:41:13.614Z,9.15
2022-10-01T22:43:41.773Z,10.40
2022-10-01T22:46:29.809Z,8.63
2022-10-01T22:49:03.170Z,7.03
2022-10-01T22:51:46.554Z,8.40
2022-10-01T22:54:26.654Z,6.88
2022-10-01T22:57:04.816Z,11.80
2022-10-01T22:59:42.156Z,10.48
2022-10-01T23:02:18.363Z,7.32
2022-10-01T23:05:03.071Z,6.90
2022-10-01T23:07:40.980Z,13.80
2022-10-01T23:10:11.378Z,13.60
2022-10-01T23:12:49.727Z,10.30
2022-10-01T23:15:29.041Z,12.07
2022-10-01T23:18:06.812Z,11.37
2022-10-01T23:20:39.837Z,11.57
2022-10-01T23:23:19.197Z,8.95
2022-10-01T23:26:03.657Z,10.18
2022-10-01T23:28:41.334Z,9.98
2022-10-01T23:31:17.045Z,13.97
2022-10-01T23:33:59.130Z,14.02
2022-10-01T23:36:36.183Z,13.63
2022-10-01T23:39:30.842Z,9.77
2022-10-01T23:42:05.253Z,12.98
2022-10-01T23:44:37.943Z,10.47
2022-10-01T23:47:10.746Z,7.63
2022-10-01T23:49:43.415Z,10.27
2022-10-01T23:52:17.965Z,9.15
2022-10-01T23:54:50.366Z,12.15
2022-10-01T23:57:22.481Z,11.17
2022-10-01T23:59:59.414Z,9.88
